x

Buoy E01 - Central Maine Shelf (44032) Wave Buoy

2:04am - Mon 2nd Mar 2015 All times are EST. -5 hours from GMT.

  • Sig Wave height 4.6ft
  • Peak Period 6s
  • Wind
    16mph, 18mph gusts
  • Sea Temp 36°f
  • 空気 Temp 29°f
  • Sea Pressure 1014.9mb
  • Buoy E01 - Central Maine Shelf
  • Buoy E01 - Central Maine Shelf

More Historic Weather Station data

Upgrade to MSW Pro to gain access to the past 30 days of data for over 8000 Wavebouys and Weather Stations around the globe.

Join Pro

Comparision Forecast

View Surf forecast
   
Mon 03/02 2:04am 4.5ft 6s 16 18 mph 1014.9mb 36f 29f
1:04am 6ft 6s 18 22 mph 1016.8mb 36f 29f
12:04am 6ft 5s 20 25 mph 1017.6mb 36f 30f
Sun 03/01 11:04pm 7ft 6s 22 27 mph 1019.2mb 36f 31f
10:04pm 6.5ft 5s 20 25 mph 1020.8mb 36f 31f
9:04pm 6ft 6s 25 36 mph 1022.6mb 37f 30f
8:04pm 6ft 6s 22 27 mph 1023.5mb 36f 29f
7:04pm 6ft 5s 22 29 mph 1025.1mb 36f 31f
6:04pm 5ft 5s 22 27 mph 1026.5mb 36f 32f
5:04pm 4ft 4s 20 27 mph 1027.8mb 37f 31f
4:04pm 3.5ft 4s 18 25 mph 1029.2mb 37f 31f
3:04pm 2.5ft 3s 18 20 mph 1030mb 37f 31f
2:04pm 2.5ft 11s 16 20 mph 1031mb 36f 31f
1:04pm 2.5ft 11s 13 16 mph 1031.9mb 37f 31f
12:04pm 1.6ft 11s 7 11 mph 1033.5mb 37f 31f
11:04am 1.6ft 11s 7 11 mph 1035.2mb 36f 30f
10:04am 2.5ft 11s 9 11 mph 1036mb 37f 29f
9:04am 1.6ft 11s 7 11 mph 1036.8mb 37f 28f
8:04am 1.6ft 11s 9 11 mph 1037.4mb 37f 26f
7:04am 2ft 11s 4 7 mph 1037.5mb 37f 28f
6:04am 2.5ft 8s 9 11 mph 1037.4mb 37f 25f
5:04am 2.5ft 11s 9 11 mph 1037.8mb 37f 26f
4:04am 2.5ft 11s 7 9 mph 1038.1mb 37f 27f
3:04am 2.5ft 11s 4 7 mph 1038mb 37f 27f
2:04am 3.5ft 11s 4 7 mph 1038.2mb 37f 27f
1:04am 3.5ft 11s 9 11 mph 1038.1mb 37f 28f
12:04am 3.5ft 11s 9 11 mph 1037.6mb 37f 28f
Sat 02/28 11:04pm 3.5ft 11s 11 13 mph 1037.5mb 37f 30f
10:04pm 3ft 11s 13 18 mph 1037.7mb 37f 31f
9:04pm  -   -  13 18 mph 1037.5mb 37f 31f
8:04pm 3ft 11s 13 16 mph 1037.3mb 37f 30f
7:04pm 3.5ft 11s 13 16 mph 1037.4mb 37f 29f
5:04pm  -   -  13 18 mph 1037.4mb 37f 27f
4:04pm 3ft 11s 16 20 mph 1037.4mb 37f 26f
3:04pm 3.5ft 11s 13 18 mph 1038mb 37f 25f
2:04pm 3ft 8s 9 11 mph 1038.1mb 37f 24f
1:04pm 3.5ft 11s 9 11 mph 1038.6mb 37f 23f
12:04pm 4ft 11s 9 11 mph 1039.2mb 37f 23f
11:04am 3.5ft 11s 7 9 mph 1039.4mb 37f 23f
10:04am 3.5ft 11s 4 9 mph 1039.2mb 37f 21f
9:04am 2.5ft 11s 4 9 mph 1039mb 37f 20f
8:04am 3.5ft 11s 9 11 mph 1038.4mb 37f 19f
7:04am 3.5ft 11s 13 16 mph 1037.3mb 37f 19f
6:04am 3.5ft 11s 13 18 mph 1036.8mb 37f 19f
5:04am 4ft 11s 16 20 mph 1035.5mb 37f 19f
4:04am 5ft 11s 18 22 mph 1034.6mb 37f 20f
3:04am 3.5ft 4s 22 27 mph 1033.9mb 37f 20f
2:04am 5.5ft 11s 25 31 mph 1033.5mb 37f 22f
1:04am 4.5ft 11s 18 22 mph 1032.8mb 37f 22f
12:04am 6ft 11s 18 22 mph 1031.8mb 37f 23f
Fri 02/27 11:04pm 6ft 11s 18 25 mph 1031.2mb 37f 24f
10:04pm 5ft 11s 18 22 mph 1030.5mb 37f 25f
9:04pm 5.5ft 11s 13 18 mph 1029.6mb 37f 26f
8:04pm 5.5ft 11s 13 18 mph 1028.9mb 38f 26f
7:04pm 4.5ft 11s 11 13 mph 1028.6mb 38f 25f
6:04pm 4.5ft 11s 11 18 mph 1027.5mb 38f 24f
5:04pm 4.5ft 11s 13 18 mph 1026.7mb 38f 24f
4:04pm 5ft 11s 13 18 mph 1026.2mb 38f 24f
3:04pm 3.5ft 11s 9 16 mph 1025.9mb 38f 23f
2:04pm 4.5ft 11s 11 16 mph 1025.9mb 38f 21f
1:04pm 4.5ft 11s 9 13 mph 1026mb 38f 21f
12:04pm 4.5ft 11s 7 11 mph 1026.1mb 38f 21f
11:04am 4ft 11s 4 7 mph 1026.5mb 38f 18f
10:04am 3.5ft 11s 9 13 mph 1026.4mb 37f 15f
9:04am 4ft 11s 11 16 mph 1026.1mb 37f 15f
8:04am 4.5ft 11s 13 18 mph 1025.6mb 37f 15f
7:04am 4ft 11s 18 22 mph 1024.5mb 37f 15f
6:04am 4.5ft 11s 20 25 mph 1023.2mb 37f 16f
5:04am 3.5ft 11s 18 22 mph 1022.1mb 37f 16f
4:04am 4ft 11s 18 22 mph 1021.4mb 37f 17f
3:04am 3.5ft 11s 18 22 mph 1020.3mb 37f 17f
2:04am  -   -  18 22 mph 1020mb 37f 18f
1:04am 3.5ft 11s 18 22 mph 1019.5mb 37f 19f
12:04am  -   -  18 22 mph 1018.9mb 37f 19f
Thu 02/26 11:04pm 4ft 11s 16 20 mph 1018.7mb 37f 20f
10:04pm 3.5ft 11s 18 20 mph 1018mb 37f 20f
9:04pm 3.5ft 11s 16 20 mph 1017.3mb 37f 20f
8:04pm 3.5ft 11s 16 20 mph 1016.3mb 37f 19f
7:04pm 3ft 11s 16 20 mph 1016mb 37f 19f
6:04pm 3ft 11s 13 16 mph 1015.9mb 37f 19f
5:04pm 2.5ft 11s 13 18 mph 1015.5mb 37f 19f
4:04pm 2.5ft 11s 11 16 mph 1015.4mb 37f 19f
3:04pm 3ft 11s 16 20 mph 1015.2mb 37f 18f
2:04pm 3.5ft 11s 13 16 mph 1015.9mb 37f 17f
1:04pm 3.5ft 11s 13 18 mph 1016.9mb 37f 16f
12:04pm  -   -  11 16 mph 1017.8mb 37f 15f
11:04am 3.5ft 11s 13 16 mph 1018.9mb 37f 15f
10:04am 4ft 11s 16 20 mph 1018.9mb 37f 15f
9:04am 3.5ft 11s 13 18 mph 1019.4mb 37f 15f